sensor_id;sensor_type;location;lat;lon;timestamp;temperature;humidity
74368;DHT22;64991;41.090;-8.118;2023-03-21T00:00:09;18.80;78.60
74368;DHT22;64991;41.090;-8.118;2023-03-21T00:05:13;18.80;78.80
74368;DHT22;64991;41.090;-8.118;2023-03-21T00:10:18;18.80;78.60
74368;DHT22;64991;41.090;-8.118;2023-03-21T00:15:40;18.90;78.80
74368;DHT22;64991;41.090;-8.118;2023-03-21T00:21:07;18.90;78.80
74368;DHT22;64991;41.090;-8.118;2023-03-21T00:26:33;18.80;78.50
74368;DHT22;64991;41.090;-8.118;2023-03-21T00:31:39;18.70;78.50
74368;DHT22;64991;41.090;-8.118;2023-03-21T00:36:42;18.80;78.60
74368;DHT22;64991;41.090;-8.118;2023-03-21T00:41:47;18.90;78.50
74368;DHT22;64991;41.090;-8.118;2023-03-21T00:46:51;18.80;78.50
74368;DHT22;64991;41.090;-8.118;2023-03-21T00:52:08;18.80;78.40
74368;DHT22;64991;41.090;-8.118;2023-03-21T00:57:26;18.80;78.70
74368;DHT22;64991;41.090;-8.118;2023-03-21T01:02:40;18.70;78.80
74368;DHT22;64991;41.090;-8.118;2023-03-21T01:08:06;18.80;78.60
74368;DHT22;64991;41.090;-8.118;2023-03-21T01:13:28;18.70;78.60
74368;DHT22;64991;41.090;-8.118;2023-03-21T01:18:35;18.80;78.70
74368;DHT22;64991;41.090;-8.118;2023-03-21T01:23:40;18.80;78.50
74368;DHT22;64991;41.090;-8.118;2023-03-21T01:28:45;18.80;78.60
74368;DHT22;64991;41.090;-8.118;2023-03-21T01:33:49;18.80;79.00
74368;DHT22;64991;41.090;-8.118;2023-03-21T01:38:52;18.80;78.50
74368;DHT22;64991;41.090;-8.118;2023-03-21T01:43:58;18.80;78.50
74368;DHT22;64991;41.090;-8.118;2023-03-21T01:49:03;18.80;78.60
74368;DHT22;64991;41.090;-8.118;2023-03-21T01:54:11;18.70;78.40
74368;DHT22;64991;41.090;-8.118;2023-03-21T01:59:19;18.80;78.40
74368;DHT22;64991;41.090;-8.118;2023-03-21T02:04:24;18.70;78.60
74368;DHT22;64991;41.090;-8.118;2023-03-21T02:09:31;18.80;78.60
74368;DHT22;64991;41.090;-8.118;2023-03-21T02:14:37;18.80;78.50
74368;DHT22;64991;41.090;-8.118;2023-03-21T02:19:56;18.70;78.50
74368;DHT22;64991;41.090;-8.118;2023-03-21T02:25:34;18.80;78.30
74368;DHT22;64991;41.090;-8.118;2023-03-21T02:36:31;18.80;78.50
74368;DHT22;64991;41.090;-8.118;2023-03-21T02:42:00;18.70;78.40
74368;DHT22;64991;41.090;-8.118;2023-03-21T02:47:07;18.80;78.50
74368;DHT22;64991;41.090;-8.118;2023-03-21T02:52:16;18.70;78.40
74368;DHT22;64991;41.090;-8.118;2023-03-21T02:57:40;18.70;78.50
74368;DHT22;64991;41.090;-8.118;2023-03-21T03:02:44;18.80;78.40
74368;DHT22;64991;41.090;-8.118;2023-03-21T03:08:05;18.70;78.30
74368;DHT22;64991;41.090;-8.118;2023-03-21T03:13:20;18.70;78.40
74368;DHT22;64991;41.090;-8.118;2023-03-21T03:18:34;18.70;78.20
74368;DHT22;64991;41.090;-8.118;2023-03-21T03:23:43;18.70;78.60
74368;DHT22;64991;41.090;-8.118;2023-03-21T03:28:49;18.70;78.30
74368;DHT22;64991;41.090;-8.118;2023-03-21T03:33:55;18.70;78.20
74368;DHT22;64991;41.090;-8.118;2023-03-21T03:39:02;18.80;77.90
74368;DHT22;64991;41.090;-8.118;2023-03-21T03:44:06;18.70;78.50
74368;DHT22;64991;41.090;-8.118;2023-03-21T03:49:11;18.70;78.20
74368;DHT22;64991;41.090;-8.118;2023-03-21T03:54:20;18.80;78.50
74368;DHT22;64991;41.090;-8.118;2023-03-21T03:59:25;18.70;78.20
74368;DHT22;64991;41.090;-8.118;2023-03-21T04:04:29;18.70;78.20
74368;DHT22;64991;41.090;-8.118;2023-03-21T04:09:34;18.70;78.30
74368;DHT22;64991;41.090;-8.118;2023-03-21T04:14:45;18.70;78.00
74368;DHT22;64991;41.090;-8.118;2023-03-21T04:19:48;18.60;78.20
74368;DHT22;64991;41.090;-8.118;2023-03-21T04:25:05;18.60;78.10
74368;DHT22;64991;41.090;-8.118;2023-03-21T04:30:09;18.70;78.20
74368;DHT22;64991;41.090;-8.118;2023-03-21T04:35:13;18.70;78.10
74368;DHT22;64991;41.090;-8.118;2023-03-21T04:40:18;18.60;78.00
74368;DHT22;64991;41.090;-8.118;2023-03-21T04:45:22;18.60;78.10
74368;DHT22;64991;41.090;-8.118;2023-03-21T04:50:26;18.70;78.30
74368;DHT22;64991;41.090;-8.118;2023-03-21T04:55:31;18.60;77.50
74368;DHT22;64991;41.090;-8.118;2023-03-21T05:00:34;18.60;78.00
74368;DHT22;64991;41.090;-8.118;2023-03-21T05:05:39;18.60;77.90
74368;DHT22;64991;41.090;-8.118;2023-03-21T05:10:44;18.70;77.90
74368;DHT22;64991;41.090;-8.118;2023-03-21T05:15:47;18.80;77.60
74368;DHT22;64991;41.090;-8.118;2023-03-21T05:20:51;18.70;77.60
74368;DHT22;64991;41.090;-8.118;2023-03-21T05:25:57;18.70;77.10
74368;DHT22;64991;41.090;-8.118;2023-03-21T05:31:01;18.70;77.50
74368;DHT22;64991;41.090;-8.118;2023-03-21T05:36:05;18.70;77.70
74368;DHT22;64991;41.090;-8.118;2023-03-21T05:41:11;18.60;77.60
74368;DHT22;64991;41.090;-8.118;2023-03-21T05:46:14;18.60;77.70
74368;DHT22;64991;41.090;-8.118;2023-03-21T05:51:18;18.50;77.70
74368;DHT22;64991;41.090;-8.118;2023-03-21T05:56:23;18.60;77.60
74368;DHT22;64991;41.090;-8.118;2023-03-21T06:01:26;18.60;77.80
74368;DHT22;64991;41.090;-8.118;2023-03-21T06:06:30;18.60;77.40
74368;DHT22;64991;41.090;-8.118;2023-03-21T06:11:35;18.50;77.70
74368;DHT22;64991;41.090;-8.118;2023-03-21T06:16:40;18.60;77.20
74368;DHT22;64991;41.090;-8.118;2023-03-21T06:21:43;18.50;77.50
74368;DHT22;64991;41.090;-8.118;2023-03-21T06:26:48;18.50;77.50
74368;DHT22;64991;41.090;-8.118;2023-03-21T06:31:52;18.60;77.60
74368;DHT22;64991;41.090;-8.118;2023-03-21T06:36:55;18.60;77.40
74368;DHT22;64991;41.090;-8.118;2023-03-21T06:42:00;18.50;77.40
74368;DHT22;64991;41.090;-8.118;2023-03-21T06:47:04;18.60;77.50
74368;DHT22;64991;41.090;-8.118;2023-03-21T06:52:08;18.40;77.70
74368;DHT22;64991;41.090;-8.118;2023-03-21T06:57:13;18.50;77.70
74368;DHT22;64991;41.090;-8.118;2023-03-21T07:02:16;18.50;77.60
74368;DHT22;64991;41.090;-8.118;2023-03-21T07:07:23;18.50;77.50
74368;DHT22;64991;41.090;-8.118;2023-03-21T07:12:29;18.40;77.70
74368;DHT22;64991;41.090;-8.118;2023-03-21T07:17:34;18.50;77.70
74368;DHT22;64991;41.090;-8.118;2023-03-21T07:22:38;18.50;77.60
74368;DHT22;64991;41.090;-8.118;2023-03-21T07:27:44;18.40;77.50
74368;DHT22;64991;41.090;-8.118;2023-03-21T07:32:48;18.50;77.70
74368;DHT22;64991;41.090;-8.118;2023-03-21T07:37:51;18.60;77.80
74368;DHT22;64991;41.090;-8.118;2023-03-21T07:42:56;18.50;77.70
74368;DHT22;64991;41.090;-8.118;2023-03-21T07:48:00;18.50;77.60
74368;DHT22;64991;41.090;-8.118;2023-03-21T07:53:04;18.50;77.50
74368;DHT22;64991;41.090;-8.118;2023-03-21T07:58:09;18.60;77.50
74368;DHT22;64991;41.090;-8.118;2023-03-21T08:03:12;18.50;77.40
74368;DHT22;64991;41.090;-8.118;2023-03-21T08:08:16;18.50;77.40
74368;DHT22;64991;41.090;-8.118;2023-03-21T08:13:21;18.50;77.60
74368;DHT22;64991;41.090;-8.118;2023-03-21T08:18:26;18.40;77.70
74368;DHT22;64991;41.090;-8.118;2023-03-21T08:23:30;18.50;77.80
74368;DHT22;64991;41.090;-8.118;2023-03-21T08:28:35;18.50;77.70
74368;DHT22;64991;41.090;-8.118;2023-03-21T08:33:40;18.60;77.80
74368;DHT22;64991;41.090;-8.118;2023-03-21T08:38:43;18.40;77.80
74368;DHT22;64991;41.090;-8.118;2023-03-21T08:43:50;18.60;77.80
74368;DHT22;64991;41.090;-8.118;2023-03-21T08:48:54;18.60;77.50
74368;DHT22;64991;41.090;-8.118;2023-03-21T08:53:57;18.60;77.70
74368;DHT22;64991;41.090;-8.118;2023-03-21T08:59:02;18.40;77.70
74368;DHT22;64991;41.090;-8.118;2023-03-21T09:04:06;18.40;77.70
74368;DHT22;64991;41.090;-8.118;2023-03-21T09:09:11;18.50;78.00
74368;DHT22;64991;41.090;-8.118;2023-03-21T09:14:17;18.50;77.80
74368;DHT22;64991;41.090;-8.118;2023-03-21T09:19:28;18.40;77.70
74368;DHT22;64991;41.090;-8.118;2023-03-21T09:24:32;18.50;77.70
74368;DHT22;64991;41.090;-8.118;2023-03-21T09:29:37;18.40;77.90
74368;DHT22;64991;41.090;-8.118;2023-03-21T09:34:41;18.40;78.00
74368;DHT22;64991;41.090;-8.118;2023-03-21T09:39:44;18.50;78.00
74368;DHT22;64991;41.090;-8.118;2023-03-21T09:44:53;18.50;78.00
74368;DHT22;64991;41.090;-8.118;2023-03-21T09:50:04;18.50;78.10
74368;DHT22;64991;41.090;-8.118;2023-03-21T09:55:16;18.60;78.20
74368;DHT22;64991;41.090;-8.118;2023-03-21T10:00:25;18.50;78.00
74368;DHT22;64991;41.090;-8.118;2023-03-21T10:05:30;18.60;78.20
74368;DHT22;64991;41.090;-8.118;2023-03-21T10:10:37;18.60;78.00
74368;DHT22;64991;41.090;-8.118;2023-03-21T10:15:44;18.60;78.30
74368;DHT22;64991;41.090;-8.118;2023-03-21T10:20:48;18.50;78.30
74368;DHT22;64991;41.090;-8.118;2023-03-21T10:25:53;18.50;78.40
74368;DHT22;64991;41.090;-8.118;2023-03-21T10:31:01;18.50;78.30
74368;DHT22;64991;41.090;-8.118;2023-03-21T10:36:07;18.60;78.30
74368;DHT22;64991;41.090;-8.118;2023-03-21T10:41:12;18.60;78.20
74368;DHT22;64991;41.090;-8.118;2023-03-21T10:46:18;18.60;78.30
74368;DHT22;64991;41.090;-8.118;2023-03-21T10:51:25;18.60;78.50
74368;DHT22;64991;41.090;-8.118;2023-03-21T10:56:30;18.60;78.50
74368;DHT22;64991;41.090;-8.118;2023-03-21T11:01:39;18.70;78.40
74368;DHT22;64991;41.090;-8.118;2023-03-21T11:06:44;18.60;78.40
74368;DHT22;64991;41.090;-8.118;2023-03-21T11:11:53;18.70;78.80
74368;DHT22;64991;41.090;-8.118;2023-03-21T11:16:59;18.70;78.70
74368;DHT22;64991;41.090;-8.118;2023-03-21T11:22:04;18.70;78.80
74368;DHT22;64991;41.090;-8.118;2023-03-21T11:27:08;18.70;79.00
74368;DHT22;64991;41.090;-8.118;2023-03-21T11:32:18;18.70;79.00
74368;DHT22;64991;41.090;-8.118;2023-03-21T11:37:24;18.60;78.90
74368;DHT22;64991;41.090;-8.118;2023-03-21T11:42:31;18.60;79.00
74368;DHT22;64991;41.090;-8.118;2023-03-21T11:47:36;18.60;78.90
74368;DHT22;64991;41.090;-8.118;2023-03-21T11:52:40;18.80;79.10
74368;DHT22;64991;41.090;-8.118;2023-03-21T11:57:48;18.70;78.90
74368;DHT22;64991;41.090;-8.118;2023-03-21T12:08:51;18.80;79.00
74368;DHT22;64991;41.090;-8.118;2023-03-21T12:14:02;18.80;79.10
74368;DHT22;64991;41.090;-8.118;2023-03-21T12:24:52;18.70;79.30
74368;DHT22;64991;41.090;-8.118;2023-03-21T12:30:00;18.70;79.20
74368;DHT22;64991;41.090;-8.118;2023-03-21T12:35:15;18.80;79.20
74368;DHT22;64991;41.090;-8.118;2023-03-21T12:40:35;18.80;79.40
74368;DHT22;64991;41.090;-8.118;2023-03-21T12:45:43;18.80;79.30
74368;DHT22;64991;41.090;-8.118;2023-03-21T12:50:48;18.80;79.40
74368;DHT22;64991;41.090;-8.118;2023-03-21T12:55:55;18.80;79.60
74368;DHT22;64991;41.090;-8.118;2023-03-21T13:01:01;18.70;79.50
74368;DHT22;64991;41.090;-8.118;2023-03-21T13:06:08;18.80;79.40
74368;DHT22;64991;41.090;-8.118;2023-03-21T13:11:14;18.70;79.60
74368;DHT22;64991;41.090;-8.118;2023-03-21T13:16:20;18.70;79.90
74368;DHT22;64991;41.090;-8.118;2023-03-21T13:21:35;18.70;79.60
74368;DHT22;64991;41.090;-8.118;2023-03-21T13:26:46;18.70;79.60
74368;DHT22;64991;41.090;-8.118;2023-03-21T13:31:52;18.60;79.90
74368;DHT22;64991;41.090;-8.118;2023-03-21T13:36:58;18.60;79.80
74368;DHT22;64991;41.090;-8.118;2023-03-21T13:42:04;18.70;79.60
74368;DHT22;64991;41.090;-8.118;2023-03-21T13:47:28;18.70;79.70
74368;DHT22;64991;41.090;-8.118;2023-03-21T13:52:36;18.70;79.70
74368;DHT22;64991;41.090;-8.118;2023-03-21T13:57:41;18.70;79.50
74368;DHT22;64991;41.090;-8.118;2023-03-21T14:02:50;18.80;80.00
74368;DHT22;64991;41.090;-8.118;2023-03-21T14:07:57;18.80;79.80
74368;DHT22;64991;41.090;-8.118;2023-03-21T14:13:18;18.80;79.80
74368;DHT22;64991;41.090;-8.118;2023-03-21T14:18:23;18.70;79.70
74368;DHT22;64991;41.090;-8.118;2023-03-21T14:23:41;18.80;79.90
74368;DHT22;64991;41.090;-8.118;2023-03-21T14:28:47;18.70;79.60
74368;DHT22;64991;41.090;-8.118;2023-03-21T14:33:52;18.70;79.80
74368;DHT22;64991;41.090;-8.118;2023-03-21T14:39:03;18.70;79.70
74368;DHT22;64991;41.090;-8.118;2023-03-21T14:44:13;18.70;79.60
74368;DHT22;64991;41.090;-8.118;2023-03-21T14:49:26;18.70;79.80
74368;DHT22;64991;41.090;-8.118;2023-03-21T14:54:31;18.70;79.80
74368;DHT22;64991;41.090;-8.118;2023-03-21T14:59:37;18.70;79.40
74368;DHT22;64991;41.090;-8.118;2023-03-21T15:04:41;18.70;79.60
74368;DHT22;64991;41.090;-8.118;2023-03-21T15:09:46;18.70;79.70
74368;DHT22;64991;41.090;-8.118;2023-03-21T15:14:57;18.80;79.60
74368;DHT22;64991;41.090;-8.118;2023-03-21T15:20:02;18.70;79.70
74368;DHT22;64991;41.090;-8.118;2023-03-21T15:25:11;18.70;79.90
74368;DHT22;64991;41.090;-8.118;2023-03-21T15:30:21;18.70;79.60
74368;DHT22;64991;41.090;-8.118;2023-03-21T15:35:30;18.70;79.70
74368;DHT22;64991;41.090;-8.118;2023-03-21T15:40:38;18.70;79.90
74368;DHT22;64991;41.090;-8.118;2023-03-21T15:45:47;18.80;79.60
74368;DHT22;64991;41.090;-8.118;2023-03-21T15:50:55;18.80;79.70
74368;DHT22;64991;41.090;-8.118;2023-03-21T15:56:00;18.70;79.80
74368;DHT22;64991;41.090;-8.118;2023-03-21T16:01:07;18.80;79.90
74368;DHT22;64991;41.090;-8.118;2023-03-21T16:06:16;18.80;79.80
74368;DHT22;64991;41.090;-8.118;2023-03-21T16:11:22;18.80;80.00
74368;DHT22;64991;41.090;-8.118;2023-03-21T16:16:28;18.80;79.90
74368;DHT22;64991;41.090;-8.118;2023-03-21T16:21:32;18.80;79.80
74368;DHT22;64991;41.090;-8.118;2023-03-21T16:26:41;18.80;79.80
74368;DHT22;64991;41.090;-8.118;2023-03-21T16:31:48;18.70;79.80
74368;DHT22;64991;41.090;-8.118;2023-03-21T16:36:51;18.80;79.50
74368;DHT22;64991;41.090;-8.118;2023-03-21T16:41:55;18.80;79.70
74368;DHT22;64991;41.090;-8.118;2023-03-21T16:47:00;18.80;79.70
74368;DHT22;64991;41.090;-8.118;2023-03-21T16:52:04;18.80;79.70
74368;DHT22;64991;41.090;-8.118;2023-03-21T16:57:12;18.90;79.70
74368;DHT22;64991;41.090;-8.118;2023-03-21T17:02:23;18.80;79.80
74368;DHT22;64991;41.090;-8.118;2023-03-21T17:07:28;18.80;79.80
74368;DHT22;64991;41.090;-8.118;2023-03-21T17:12:31;18.80;79.70
74368;DHT22;64991;41.090;-8.118;2023-03-21T17:17:36;18.80;79.70
74368;DHT22;64991;41.090;-8.118;2023-03-21T17:22:39;18.90;79.60
74368;DHT22;64991;41.090;-8.118;2023-03-21T17:27:43;18.80;79.80
74368;DHT22;64991;41.090;-8.118;2023-03-21T17:32:49;18.80;79.80
74368;DHT22;64991;41.090;-8.118;2023-03-21T17:37:52;18.90;79.90
74368;DHT22;64991;41.090;-8.118;2023-03-21T17:42:59;18.80;79.70
74368;DHT22;64991;41.090;-8.118;2023-03-21T17:48:04;18.80;79.80
74368;DHT22;64991;41.090;-8.118;2023-03-21T17:53:08;18.80;79.80
74368;DHT22;64991;41.090;-8.118;2023-03-21T17:58:11;18.80;79.90
74368;DHT22;64991;41.090;-8.118;2023-03-21T18:03:16;18.80;79.90
74368;DHT22;64991;41.090;-8.118;2023-03-21T18:08:20;18.90;80.10
74368;DHT22;64991;41.090;-8.118;2023-03-21T18:13:23;18.80;80.00
74368;DHT22;64991;41.090;-8.118;2023-03-21T18:18:28;18.90;80.20
74368;DHT22;64991;41.090;-8.118;2023-03-21T18:23:32;18.90;80.00
74368;DHT22;64991;41.090;-8.118;2023-03-21T18:28:36;18.80;79.90
74368;DHT22;64991;41.090;-8.118;2023-03-21T18:33:43;18.90;79.90
74368;DHT22;64991;41.090;-8.118;2023-03-21T18:38:48;18.80;80.00
74368;DHT22;64991;41.090;-8.118;2023-03-21T18:43:51;18.80;79.80
74368;DHT22;64991;41.090;-8.118;2023-03-21T18:49:16;18.80;79.90
74368;DHT22;64991;41.090;-8.118;2023-03-21T18:54:40;18.70;79.90
74368;DHT22;64991;41.090;-8.118;2023-03-21T18:59:43;18.80;79.90
74368;DHT22;64991;41.090;-8.118;2023-03-21T19:04:49;18.90;79.90
74368;DHT22;64991;41.090;-8.118;2023-03-21T19:09:52;18.80;79.90
74368;DHT22;64991;41.090;-8.118;2023-03-21T19:15:16;18.90;79.90
74368;DHT22;64991;41.090;-8.118;2023-03-21T19:20:23;18.80;79.90
74368;DHT22;64991;41.090;-8.118;2023-03-21T19:25:27;18.80;79.80
74368;DHT22;64991;41.090;-8.118;2023-03-21T19:30:31;18.80;79.70
74368;DHT22;64991;41.090;-8.118;2023-03-21T19:35:36;18.80;80.00
74368;DHT22;64991;41.090;-8.118;2023-03-21T19:40:43;18.80;79.80
74368;DHT22;64991;41.090;-8.118;2023-03-21T19:45:47;18.90;79.70
74368;DHT22;64991;41.090;-8.118;2023-03-21T19:50:52;18.80;79.90
74368;DHT22;64991;41.090;-8.118;2023-03-21T19:56:15;18.80;79.80
74368;DHT22;64991;41.090;-8.118;2023-03-21T20:01:26;18.90;80.00
74368;DHT22;64991;41.090;-8.118;2023-03-21T20:06:32;18.80;79.90
74368;DHT22;64991;41.090;-8.118;2023-03-21T20:11:35;18.90;79.90
74368;DHT22;64991;41.090;-8.118;2023-03-21T20:16:39;18.80;80.00
74368;DHT22;64991;41.090;-8.118;2023-03-21T20:21:45;18.90;79.70
74368;DHT22;64991;41.090;-8.118;2023-03-21T20:26:59;18.90;79.80
74368;DHT22;64991;41.090;-8.118;2023-03-21T20:32:03;18.80;79.80
74368;DHT22;64991;41.090;-8.118;2023-03-21T20:37:09;18.80;79.80
74368;DHT22;64991;41.090;-8.118;2023-03-21T20:42:13;18.80;80.00
74368;DHT22;64991;41.090;-8.118;2023-03-21T20:47:16;18.80;80.20
74368;DHT22;64991;41.090;-8.118;2023-03-21T20:52:21;18.80;80.00
74368;DHT22;64991;41.090;-8.118;2023-03-21T20:57:45;18.80;80.00
74368;DHT22;64991;41.090;-8.118;2023-03-21T21:02:49;18.80;80.00
74368;DHT22;64991;41.090;-8.118;2023-03-21T21:07:54;18.70;79.80
74368;DHT22;64991;41.090;-8.118;2023-03-21T21:12:57;18.80;79.80
74368;DHT22;64991;41.090;-8.118;2023-03-21T21:18:01;18.80;79.90
74368;DHT22;64991;41.090;-8.118;2023-03-21T21:23:09;18.70;79.80
74368;DHT22;64991;41.090;-8.118;2023-03-21T21:28:14;18.80;79.80
74368;DHT22;64991;41.090;-8.118;2023-03-21T21:33:19;18.80;79.80
74368;DHT22;64991;41.090;-8.118;2023-03-21T21:38:24;18.80;79.70
74368;DHT22;64991;41.090;-8.118;2023-03-21T21:43:27;18.80;79.70
74368;DHT22;64991;41.090;-8.118;2023-03-21T21:48:31;18.80;79.60
74368;DHT22;64991;41.090;-8.118;2023-03-21T21:53:36;18.80;79.60
74368;DHT22;64991;41.090;-8.118;2023-03-21T21:58:41;18.80;79.50
74368;DHT22;64991;41.090;-8.118;2023-03-21T22:03:47;18.80;79.60
74368;DHT22;64991;41.090;-8.118;2023-03-21T22:08:53;18.70;79.70
74368;DHT22;64991;41.090;-8.118;2023-03-21T22:13:58;18.80;79.60
74368;DHT22;64991;41.090;-8.118;2023-03-21T22:19:01;18.80;79.40
74368;DHT22;64991;41.090;-8.118;2023-03-21T22:24:07;18.80;79.20
74368;DHT22;64991;41.090;-8.118;2023-03-21T22:29:10;18.80;79.40
74368;DHT22;64991;41.090;-8.118;2023-03-21T22:34:14;18.80;79.50
74368;DHT22;64991;41.090;-8.118;2023-03-21T22:39:19;18.80;79.40
74368;DHT22;64991;41.090;-8.118;2023-03-21T22:44:27;18.70;79.20
74368;DHT22;64991;41.090;-8.118;2023-03-21T22:49:35;18.70;79.20
74368;DHT22;64991;41.090;-8.118;2023-03-21T22:54:40;18.70;79.40
74368;DHT22;64991;41.090;-8.118;2023-03-21T22:59:43;18.80;79.20
74368;DHT22;64991;41.090;-8.118;2023-03-21T23:04:47;18.80;79.00
74368;DHT22;64991;41.090;-8.118;2023-03-21T23:09:52;18.80;79.20
74368;DHT22;64991;41.090;-8.118;2023-03-21T23:14:55;18.80;79.00
74368;DHT22;64991;41.090;-8.118;2023-03-21T23:19:59;18.80;79.10
74368;DHT22;64991;41.090;-8.118;2023-03-21T23:25:05;18.80;79.00
74368;DHT22;64991;41.090;-8.118;2023-03-21T23:30:09;18.80;79.40
74368;DHT22;64991;41.090;-8.118;2023-03-21T23:35:12;18.80;78.80
74368;DHT22;64991;41.090;-8.118;2023-03-21T23:40:18;18.80;79.00
74368;DHT22;64991;41.090;-8.118;2023-03-21T23:45:21;18.80;79.00
74368;DHT22;64991;41.090;-8.118;2023-03-21T23:50:25;18.80;78.90
74368;DHT22;64991;41.090;-8.118;2023-03-21T23:55:29;18.80;78.90
